Portada
METAR-TAF:

METAR-TAF

Aeroports :

Pittsfield Penstone Municipal Airport

Pittsfield, Illinois, Estats Units d'Amèrica

latitud: 39-38-20N, longitud: 090-46-42W, altitud: 216 m

Observació

L'informe es va fer fa 28 minuts, a les 16:15 UTC
Vent 4 kt del Sud-Est
Temperatura 28°C
Humitat 48%
Pressió 1019 hPa
Visibilitat: 16.1 km
Cel clar

METAR: KPPQ 151615Z AUTO 13004KT 10SM CLR 28/16 A3008 RMK AO2 T02760161

Hora: 11:43 (16:43 UTC)


TAF: manca

Observacions i pronòstics meteorològics de més de 4000 aeroports (METAR i TAF).

Les estacions disponibles són els punts grocs i vermells al mapa.

Posi el ratolí al punt desitjat per veure el nom de l'estació.

Feu clic per veure les observacions i els pronòstics meteorològics.

Per canviar el mapa: feu clic els botons verds amb una creu de color negre per apropar; al botó verd amb un guió per allunyar la imatge; o en les fletxes verdes per a mapes adjacents.


METAR-TAF: